sensor_id;sensor_type;location;lat;lon;timestamp;temperature;humidity
29413;DHT22;16389;50.126;8.450;2022-08-19T00:01:44;21.60;99.90
29413;DHT22;16389;50.126;8.450;2022-08-19T00:04:12;21.60;99.90
29413;DHT22;16389;50.126;8.450;2022-08-19T00:06:40;21.60;99.90
29413;DHT22;16389;50.126;8.450;2022-08-19T00:09:09;21.50;99.90
29413;DHT22;16389;50.126;8.450;2022-08-19T00:11:36;21.60;99.90
29413;DHT22;16389;50.126;8.450;2022-08-19T00:14:04;21.50;99.90
29413;DHT22;16389;50.126;8.450;2022-08-19T00:16:30;21.60;99.90
29413;DHT22;16389;50.126;8.450;2022-08-19T00:18:56;21.50;99.90
29413;DHT22;16389;50.126;8.450;2022-08-19T00:21:23;21.60;99.90
29413;DHT22;16389;50.126;8.450;2022-08-19T00:23:49;21.50;99.90
29413;DHT22;16389;50.126;8.450;2022-08-19T00:26:15;21.50;99.90
29413;DHT22;16389;50.126;8.450;2022-08-19T00:28:40;21.50;99.90
29413;DHT22;16389;50.126;8.450;2022-08-19T00:31:07;21.50;99.90
29413;DHT22;16389;50.126;8.450;2022-08-19T00:33:33;21.50;99.90
29413;DHT22;16389;50.126;8.450;2022-08-19T00:36:06;21.50;99.90
29413;DHT22;16389;50.126;8.450;2022-08-19T00:38:33;21.50;99.90
29413;DHT22;16389;50.126;8.450;2022-08-19T00:40:59;21.50;99.90
29413;DHT22;16389;50.126;8.450;2022-08-19T00:43:26;21.40;99.90
29413;DHT22;16389;50.126;8.450;2022-08-19T00:45:53;21.40;99.90
29413;DHT22;16389;50.126;8.450;2022-08-19T00:48:20;21.40;99.90
29413;DHT22;16389;50.126;8.450;2022-08-19T00:50:48;21.50;99.90
29413;DHT22;16389;50.126;8.450;2022-08-19T00:53:16;21.50;99.90
29413;DHT22;16389;50.126;8.450;2022-08-19T00:55:49;21.40;99.90
29413;DHT22;16389;50.126;8.450;2022-08-19T00:58:19;21.40;99.90
29413;DHT22;16389;50.126;8.450;2022-08-19T01:00:46;21.50;99.90
29413;DHT22;16389;50.126;8.450;2022-08-19T01:03:19;21.50;99.90
29413;DHT22;16389;50.126;8.450;2022-08-19T01:05:46;21.40;99.90
29413;DHT22;16389;50.126;8.450;2022-08-19T01:08:15;21.50;99.90
29413;DHT22;16389;50.126;8.450;2022-08-19T01:10:44;21.50;99.90
29413;DHT22;16389;50.126;8.450;2022-08-19T01:13:13;21.40;99.90
29413;DHT22;16389;50.126;8.450;2022-08-19T01:15:55;21.40;99.90
29413;DHT22;16389;50.126;8.450;2022-08-19T01:18:22;21.40;99.90
29413;DHT22;16389;50.126;8.450;2022-08-19T01:20:49;21.40;99.90
29413;DHT22;16389;50.126;8.450;2022-08-19T01:23:16;21.40;99.90
29413;DHT22;16389;50.126;8.450;2022-08-19T01:25:45;21.40;99.90
29413;DHT22;16389;50.126;8.450;2022-08-19T01:28:27;21.30;99.90
29413;DHT22;16389;50.126;8.450;2022-08-19T01:30:53;21.30;99.90
29413;DHT22;16389;50.126;8.450;2022-08-19T01:33:19;21.30;99.90
29413;DHT22;16389;50.126;8.450;2022-08-19T01:35:46;21.30;99.90
29413;DHT22;16389;50.126;8.450;2022-08-19T01:38:27;21.20;99.90
29413;DHT22;16389;50.126;8.450;2022-08-19T01:40:57;21.20;99.90
29413;DHT22;16389;50.126;8.450;2022-08-19T01:43:22;21.20;99.90
29413;DHT22;16389;50.126;8.450;2022-08-19T01:45:48;21.20;99.90
29413;DHT22;16389;50.126;8.450;2022-08-19T01:48:14;21.20;99.90
29413;DHT22;16389;50.126;8.450;2022-08-19T01:50:40;21.20;99.90
29413;DHT22;16389;50.126;8.450;2022-08-19T01:53:09;21.20;99.90
29413;DHT22;16389;50.126;8.450;2022-08-19T01:55:38;21.20;99.90
29413;DHT22;16389;50.126;8.450;2022-08-19T01:58:06;21.20;99.90
29413;DHT22;16389;50.126;8.450;2022-08-19T02:00:33;21.20;99.90
29413;DHT22;16389;50.126;8.450;2022-08-19T02:02:58;21.20;99.90
29413;DHT22;16389;50.126;8.450;2022-08-19T02:05:26;21.10;99.90
29413;DHT22;16389;50.126;8.450;2022-08-19T02:07:55;21.10;99.90
29413;DHT22;16389;50.126;8.450;2022-08-19T02:10:22;21.10;99.90
29413;DHT22;16389;50.126;8.450;2022-08-19T02:12:49;21.10;99.90
29413;DHT22;16389;50.126;8.450;2022-08-19T02:15:16;21.10;99.90
29413;DHT22;16389;50.126;8.450;2022-08-19T02:17:42;21.00;99.90
29413;DHT22;16389;50.126;8.450;2022-08-19T02:20:08;21.00;99.90
29413;DHT22;16389;50.126;8.450;2022-08-19T02:22:34;21.00;99.90
29413;DHT22;16389;50.126;8.450;2022-08-19T02:25:01;21.00;99.90
29413;DHT22;16389;50.126;8.450;2022-08-19T02:27:26;21.00;99.90
29413;DHT22;16389;50.126;8.450;2022-08-19T02:29:53;20.90;99.90
29413;DHT22;16389;50.126;8.450;2022-08-19T02:32:19;20.90;99.90
29413;DHT22;16389;50.126;8.450;2022-08-19T02:34:46;20.90;99.90
29413;DHT22;16389;50.126;8.450;2022-08-19T02:37:12;20.90;99.90
29413;DHT22;16389;50.126;8.450;2022-08-19T02:39:56;20.80;99.90
29413;DHT22;16389;50.126;8.450;2022-08-19T02:42:22;20.80;99.90
29413;DHT22;16389;50.126;8.450;2022-08-19T02:44:48;20.70;99.90
29413;DHT22;16389;50.126;8.450;2022-08-19T02:47:14;20.70;99.90
29413;DHT22;16389;50.126;8.450;2022-08-19T02:49:40;20.70;99.90
29413;DHT22;16389;50.126;8.450;2022-08-19T02:52:06;20.60;99.90
29413;DHT22;16389;50.126;8.450;2022-08-19T02:54:32;20.50;99.90
29413;DHT22;16389;50.126;8.450;2022-08-19T02:56:58;20.50;99.90
29413;DHT22;16389;50.126;8.450;2022-08-19T02:59:24;20.40;99.90
29413;DHT22;16389;50.126;8.450;2022-08-19T03:01:51;20.40;99.90
29413;DHT22;16389;50.126;8.450;2022-08-19T03:04:16;20.30;99.90
29413;DHT22;16389;50.126;8.450;2022-08-19T03:06:45;20.30;99.90
29413;DHT22;16389;50.126;8.450;2022-08-19T03:09:11;20.20;99.90
29413;DHT22;16389;50.126;8.450;2022-08-19T03:11:38;20.30;99.90
29413;DHT22;16389;50.126;8.450;2022-08-19T03:14:06;20.20;99.90
29413;DHT22;16389;50.126;8.450;2022-08-19T03:16:34;20.10;99.90
29413;DHT22;16389;50.126;8.450;2022-08-19T03:19:01;20.10;99.90
29413;DHT22;16389;50.126;8.450;2022-08-19T03:21:29;20.10;99.90
29413;DHT22;16389;50.126;8.450;2022-08-19T03:24:01;20.10;99.90
29413;DHT22;16389;50.126;8.450;2022-08-19T03:26:27;20.00;99.90
29413;DHT22;16389;50.126;8.450;2022-08-19T03:28:53;20.00;99.90
29413;DHT22;16389;50.126;8.450;2022-08-19T03:31:21;20.00;99.90
29413;DHT22;16389;50.126;8.450;2022-08-19T03:33:48;20.00;99.90
29413;DHT22;16389;50.126;8.450;2022-08-19T03:36:18;20.00;99.90
29413;DHT22;16389;50.126;8.450;2022-08-19T03:38:49;19.90;99.90
29413;DHT22;16389;50.126;8.450;2022-08-19T03:41:19;19.90;99.90
29413;DHT22;16389;50.126;8.450;2022-08-19T03:43:46;20.00;99.90
29413;DHT22;16389;50.126;8.450;2022-08-19T03:46:19;19.90;99.90
29413;DHT22;16389;50.126;8.450;2022-08-19T03:48:46;19.90;99.90
29413;DHT22;16389;50.126;8.450;2022-08-19T03:53:46;19.80;99.90
29413;DHT22;16389;50.126;8.450;2022-08-19T03:56:13;19.80;99.90
29413;DHT22;16389;50.126;8.450;2022-08-19T03:58:39;19.70;99.90
29413;DHT22;16389;50.126;8.450;2022-08-19T04:01:17;19.70;99.90
29413;DHT22;16389;50.126;8.450;2022-08-19T04:03:44;19.60;99.90
29413;DHT22;16389;50.126;8.450;2022-08-19T04:06:22;19.60;99.90
29413;DHT22;16389;50.126;8.450;2022-08-19T04:08:49;19.60;99.90
29413;DHT22;16389;50.126;8.450;2022-08-19T04:11:23;19.50;99.90
29413;DHT22;16389;50.126;8.450;2022-08-19T04:13:49;19.50;99.90
29413;DHT22;16389;50.126;8.450;2022-08-19T04:16:20;19.50;99.90
29413;DHT22;16389;50.126;8.450;2022-08-19T04:18:47;19.50;99.90
29413;DHT22;16389;50.126;8.450;2022-08-19T04:21:18;19.50;99.90
29413;DHT22;16389;50.126;8.450;2022-08-19T04:23:44;19.50;99.90
29413;DHT22;16389;50.126;8.450;2022-08-19T04:26:15;19.50;99.90
29413;DHT22;16389;50.126;8.450;2022-08-19T04:28:42;19.50;99.90
29413;DHT22;16389;50.126;8.450;2022-08-19T04:31:16;19.50;99.90
29413;DHT22;16389;50.126;8.450;2022-08-19T04:33:42;19.50;99.90
29413;DHT22;16389;50.126;8.450;2022-08-19T04:36:19;19.50;99.90
29413;DHT22;16389;50.126;8.450;2022-08-19T04:38:46;19.40;99.90
29413;DHT22;16389;50.126;8.450;2022-08-19T04:41:15;19.50;99.90
29413;DHT22;16389;50.126;8.450;2022-08-19T04:44:00;19.50;99.90
29413;DHT22;16389;50.126;8.450;2022-08-19T04:46:28;19.50;99.90
29413;DHT22;16389;50.126;8.450;2022-08-19T04:48:56;19.50;99.90
29413;DHT22;16389;50.126;8.450;2022-08-19T04:51:22;19.50;99.90
29413;DHT22;16389;50.126;8.450;2022-08-19T04:53:48;19.60;99.90
29413;DHT22;16389;50.126;8.450;2022-08-19T04:56:16;19.60;99.90
29413;DHT22;16389;50.126;8.450;2022-08-19T04:58:43;19.60;99.90
29413;DHT22;16389;50.126;8.450;2022-08-19T05:01:12;19.60;99.90
29413;DHT22;16389;50.126;8.450;2022-08-19T05:03:39;19.70;99.90
29413;DHT22;16389;50.126;8.450;2022-08-19T05:06:10;19.70;99.90
29413;DHT22;16389;50.126;8.450;2022-08-19T05:08:38;19.70;99.90
29413;DHT22;16389;50.126;8.450;2022-08-19T05:13:41;19.80;99.90
29413;DHT22;16389;50.126;8.450;2022-08-19T05:16:08;19.80;99.90
29413;DHT22;16389;50.126;8.450;2022-08-19T05:18:34;19.90;99.90
29413;DHT22;16389;50.126;8.450;2022-08-19T05:21:19;20.00;99.90
29413;DHT22;16389;50.126;8.450;2022-08-19T05:24:05;20.00;99.90
29413;DHT22;16389;50.126;8.450;2022-08-19T05:26:37;20.10;99.90
29413;DHT22;16389;50.126;8.450;2022-08-19T05:29:04;20.10;99.90
29413;DHT22;16389;50.126;8.450;2022-08-19T05:31:30;20.20;99.90
29413;DHT22;16389;50.126;8.450;2022-08-19T05:33:56;20.30;99.90
29413;DHT22;16389;50.126;8.450;2022-08-19T05:36:28;20.30;99.90
29413;DHT22;16389;50.126;8.450;2022-08-19T05:38:53;20.30;99.90
29413;DHT22;16389;50.126;8.450;2022-08-19T05:41:20;20.40;99.90
29413;DHT22;16389;50.126;8.450;2022-08-19T05:43:48;20.50;99.90
29413;DHT22;16389;50.126;8.450;2022-08-19T05:46:19;20.60;99.90
29413;DHT22;16389;50.126;8.450;2022-08-19T05:48:45;20.60;99.90
29413;DHT22;16389;50.126;8.450;2022-08-19T05:51:11;20.60;99.90
29413;DHT22;16389;50.126;8.450;2022-08-19T05:53:37;20.70;99.90
29413;DHT22;16389;50.126;8.450;2022-08-19T05:56:07;20.70;99.90
29413;DHT22;16389;50.126;8.450;2022-08-19T05:58:34;20.80;99.90
29413;DHT22;16389;50.126;8.450;2022-08-19T06:01:00;20.80;99.90
29413;DHT22;16389;50.126;8.450;2022-08-19T06:03:34;20.90;99.90
29413;DHT22;16389;50.126;8.450;2022-08-19T06:06:01;20.90;99.90
29413;DHT22;16389;50.126;8.450;2022-08-19T06:08:28;20.90;99.90
29413;DHT22;16389;50.126;8.450;2022-08-19T06:10:54;21.00;99.90
29413;DHT22;16389;50.126;8.450;2022-08-19T06:13:21;21.00;99.90
29413;DHT22;16389;50.126;8.450;2022-08-19T06:15:48;21.10;99.90
29413;DHT22;16389;50.126;8.450;2022-08-19T06:18:14;21.10;99.90
29413;DHT22;16389;50.126;8.450;2022-08-19T06:20:41;21.10;99.90
29413;DHT22;16389;50.126;8.450;2022-08-19T06:23:07;21.10;99.90
29413;DHT22;16389;50.126;8.450;2022-08-19T06:25:33;21.10;99.90
29413;DHT22;16389;50.126;8.450;2022-08-19T06:27:59;21.10;99.90
29413;DHT22;16389;50.126;8.450;2022-08-19T06:30:25;21.10;99.90
29413;DHT22;16389;50.126;8.450;2022-08-19T06:32:50;21.10;99.90
29413;DHT22;16389;50.126;8.450;2022-08-19T06:35:16;21.10;99.90
29413;DHT22;16389;50.126;8.450;2022-08-19T06:37:42;21.20;99.90
29413;DHT22;16389;50.126;8.450;2022-08-19T06:40:08;21.20;99.90
29413;DHT22;16389;50.126;8.450;2022-08-19T06:42:36;21.20;99.90
29413;DHT22;16389;50.126;8.450;2022-08-19T06:45:04;21.30;99.90
29413;DHT22;16389;50.126;8.450;2022-08-19T06:47:30;21.30;99.90
29413;DHT22;16389;50.126;8.450;2022-08-19T06:49:58;21.50;99.90
29413;DHT22;16389;50.126;8.450;2022-08-19T06:52:27;21.50;99.90
29413;DHT22;16389;50.126;8.450;2022-08-19T06:54:53;21.60;99.90
29413;DHT22;16389;50.126;8.450;2022-08-19T06:57:20;21.60;99.90
29413;DHT22;16389;50.126;8.450;2022-08-19T06:59:46;21.80;99.90
29413;DHT22;16389;50.126;8.450;2022-08-19T07:02:12;21.80;99.90
29413;DHT22;16389;50.126;8.450;2022-08-19T07:04:38;22.00;99.90
29413;DHT22;16389;50.126;8.450;2022-08-19T07:07:10;22.00;99.90
29413;DHT22;16389;50.126;8.450;2022-08-19T07:09:39;22.10;99.90
29413;DHT22;16389;50.126;8.450;2022-08-19T07:12:08;22.20;99.90
29413;DHT22;16389;50.126;8.450;2022-08-19T07:14:35;22.30;99.90
29413;DHT22;16389;50.126;8.450;2022-08-19T07:17:04;22.40;99.90
29413;DHT22;16389;50.126;8.450;2022-08-19T07:19:30;22.50;99.90
29413;DHT22;16389;50.126;8.450;2022-08-19T07:21:57;22.60;99.90
29413;DHT22;16389;50.126;8.450;2022-08-19T07:24:25;22.70;99.90
29413;DHT22;16389;50.126;8.450;2022-08-19T07:26:53;22.80;99.90
29413;DHT22;16389;50.126;8.450;2022-08-19T07:29:21;22.80;99.90
29413;DHT22;16389;50.126;8.450;2022-08-19T07:31:49;22.80;99.90
29413;DHT22;16389;50.126;8.450;2022-08-19T07:34:15;22.80;99.90
29413;DHT22;16389;50.126;8.450;2022-08-19T07:36:43;22.80;99.90
29413;DHT22;16389;50.126;8.450;2022-08-19T07:39:15;22.90;99.90
29413;DHT22;16389;50.126;8.450;2022-08-19T07:41:42;23.10;99.90
29413;DHT22;16389;50.126;8.450;2022-08-19T07:44:09;23.30;99.90
29413;DHT22;16389;50.126;8.450;2022-08-19T07:46:37;23.40;99.90
29413;DHT22;16389;50.126;8.450;2022-08-19T07:49:04;23.60;99.90
29413;DHT22;16389;50.126;8.450;2022-08-19T07:51:30;23.70;99.90
29413;DHT22;16389;50.126;8.450;2022-08-19T07:53:56;23.80;99.90
29413;DHT22;16389;50.126;8.450;2022-08-19T07:56:23;23.90;99.90
29413;DHT22;16389;50.126;8.450;2022-08-19T07:58:50;24.00;99.90
29413;DHT22;16389;50.126;8.450;2022-08-19T08:01:20;24.20;99.90
29413;DHT22;16389;50.126;8.450;2022-08-19T08:03:47;24.30;99.90
29413;DHT22;16389;50.126;8.450;2022-08-19T08:06:32;24.40;99.90
29413;DHT22;16389;50.126;8.450;2022-08-19T08:09:21;24.40;99.90
29413;DHT22;16389;50.126;8.450;2022-08-19T08:14:21;24.70;99.90
29413;DHT22;16389;50.126;8.450;2022-08-19T08:16:48;24.70;99.90
29413;DHT22;16389;50.126;8.450;2022-08-19T08:19:16;24.80;99.90
29413;DHT22;16389;50.126;8.450;2022-08-19T08:21:42;24.80;99.90
29413;DHT22;16389;50.126;8.450;2022-08-19T08:24:08;24.90;99.90
29413;DHT22;16389;50.126;8.450;2022-08-19T08:26:34;24.90;99.90
29413;DHT22;16389;50.126;8.450;2022-08-19T08:28:59;25.00;99.90
29413;DHT22;16389;50.126;8.450;2022-08-19T08:31:25;25.00;99.90
29413;DHT22;16389;50.126;8.450;2022-08-19T08:33:51;25.00;99.90
29413;DHT22;16389;50.126;8.450;2022-08-19T08:36:16;25.10;99.90
29413;DHT22;16389;50.126;8.450;2022-08-19T08:38:43;25.00;99.90
29413;DHT22;16389;50.126;8.450;2022-08-19T08:43:52;25.10;99.90
29413;DHT22;16389;50.126;8.450;2022-08-19T08:46:41;25.20;99.90
29413;DHT22;16389;50.126;8.450;2022-08-19T08:49:22;25.40;99.90
29413;DHT22;16389;50.126;8.450;2022-08-19T08:52:04;25.50;99.90
29413;DHT22;16389;50.126;8.450;2022-08-19T08:54:43;25.70;99.90
29413;DHT22;16389;50.126;8.450;2022-08-19T08:57:15;25.90;99.90
29413;DHT22;16389;50.126;8.450;2022-08-19T08:59:46;26.20;99.90
29413;DHT22;16389;50.126;8.450;2022-08-19T09:02:16;26.30;99.90
29413;DHT22;16389;50.126;8.450;2022-08-19T09:04:42;26.50;99.90
29413;DHT22;16389;50.126;8.450;2022-08-19T09:07:54;26.60;99.90
29413;DHT22;16389;50.126;8.450;2022-08-19T09:10:23;26.70;99.90
29413;DHT22;16389;50.126;8.450;2022-08-19T09:15:46;27.20;98.70
29413;DHT22;16389;50.126;8.450;2022-08-19T09:18:13;27.20;98.70
29413;DHT22;16389;50.126;8.450;2022-08-19T09:20:39;27.30;97.80
29413;DHT22;16389;50.126;8.450;2022-08-19T09:23:05;27.40;98.20
29413;DHT22;16389;50.126;8.450;2022-08-19T09:25:30;27.60;98.20
29413;DHT22;16389;50.126;8.450;2022-08-19T09:28:00;27.70;97.40
29413;DHT22;16389;50.126;8.450;2022-08-19T09:30:30;27.70;96.80
29413;DHT22;16389;50.126;8.450;2022-08-19T09:32:57;27.80;96.70
29413;DHT22;16389;50.126;8.450;2022-08-19T09:35:25;27.90;96.30
29413;DHT22;16389;50.126;8.450;2022-08-19T09:37:53;28.00;95.50
29413;DHT22;16389;50.126;8.450;2022-08-19T09:40:19;28.00;95.40
29413;DHT22;16389;50.126;8.450;2022-08-19T09:42:45;28.00;95.20
29413;DHT22;16389;50.126;8.450;2022-08-19T09:45:16;28.00;94.90
29413;DHT22;16389;50.126;8.450;2022-08-19T09:47:43;27.90;94.50
29413;DHT22;16389;50.126;8.450;2022-08-19T09:50:11;28.10;95.10
29413;DHT22;16389;50.126;8.450;2022-08-19T09:52:38;28.20;94.40
29413;DHT22;16389;50.126;8.450;2022-08-19T09:55:05;27.90;94.40
29413;DHT22;16389;50.126;8.450;2022-08-19T09:57:31;27.60;94.60
29413;DHT22;16389;50.126;8.450;2022-08-19T09:59:57;27.40;94.60
29413;DHT22;16389;50.126;8.450;2022-08-19T10:02:22;27.40;95.00
29413;DHT22;16389;50.126;8.450;2022-08-19T10:04:48;27.60;94.90
29413;DHT22;16389;50.126;8.450;2022-08-19T10:07:32;27.70;94.80
29413;DHT22;16389;50.126;8.450;2022-08-19T10:09:58;27.80;93.80
29413;DHT22;16389;50.126;8.450;2022-08-19T10:12:24;27.90;93.50
29413;DHT22;16389;50.126;8.450;2022-08-19T10:14:49;28.20;94.00
29413;DHT22;16389;50.126;8.450;2022-08-19T10:17:17;28.60;93.50
29413;DHT22;16389;50.126;8.450;2022-08-19T10:19:43;29.20;93.50
29413;DHT22;16389;50.126;8.450;2022-08-19T10:22:08;29.30;92.10
29413;DHT22;16389;50.126;8.450;2022-08-19T10:24:36;29.30;91.80
29413;DHT22;16389;50.126;8.450;2022-08-19T10:27:02;29.70;91.90
29413;DHT22;16389;50.126;8.450;2022-08-19T10:29:30;29.90;90.70
29413;DHT22;16389;50.126;8.450;2022-08-19T10:31:57;30.10;90.50
29413;DHT22;16389;50.126;8.450;2022-08-19T10:34:24;30.30;88.50
29413;DHT22;16389;50.126;8.450;2022-08-19T10:36:50;30.60;87.50
29413;DHT22;16389;50.126;8.450;2022-08-19T10:39:16;30.90;86.50
29413;DHT22;16389;50.126;8.450;2022-08-19T10:41:42;31.10;85.90
29413;DHT22;16389;50.126;8.450;2022-08-19T10:44:11;31.40;84.30
29413;DHT22;16389;50.126;8.450;2022-08-19T10:46:40;31.50;83.30
29413;DHT22;16389;50.126;8.450;2022-08-19T10:49:10;31.70;80.90
29413;DHT22;16389;50.126;8.450;2022-08-19T10:51:38;32.00;79.90
29413;DHT22;16389;50.126;8.450;2022-08-19T10:54:23;32.00;80.00
29413;DHT22;16389;50.126;8.450;2022-08-19T10:57:09;31.80;80.50
29413;DHT22;16389;50.126;8.450;2022-08-19T10:59:35;32.10;78.50
29413;DHT22;16389;50.126;8.450;2022-08-19T11:02:04;32.30;78.30
29413;DHT22;16389;50.126;8.450;2022-08-19T11:04:30;32.40;77.90
29413;DHT22;16389;50.126;8.450;2022-08-19T11:06:57;32.60;76.30
29413;DHT22;16389;50.126;8.450;2022-08-19T11:09:25;32.60;76.50
29413;DHT22;16389;50.126;8.450;2022-08-19T11:11:52;32.50;75.20
29413;DHT22;16389;50.126;8.450;2022-08-19T11:14:20;32.60;74.80
29413;DHT22;16389;50.126;8.450;2022-08-19T11:16:47;32.80;73.40
29413;DHT22;16389;50.126;8.450;2022-08-19T11:19:14;32.90;73.30
29413;DHT22;16389;50.126;8.450;2022-08-19T11:21:43;33.30;73.30
29413;DHT22;16389;50.126;8.450;2022-08-19T11:24:12;33.40;72.00
29413;DHT22;16389;50.126;8.450;2022-08-19T11:26:39;33.60;72.50
29413;DHT22;16389;50.126;8.450;2022-08-19T11:29:07;33.90;71.40
29413;DHT22;16389;50.126;8.450;2022-08-19T11:31:37;34.30;69.70
29413;DHT22;16389;50.126;8.450;2022-08-19T11:34:06;34.50;68.10
29413;DHT22;16389;50.126;8.450;2022-08-19T11:36:33;34.50;68.20
29413;DHT22;16389;50.126;8.450;2022-08-19T11:38:59;34.70;67.90
29413;DHT22;16389;50.126;8.450;2022-08-19T11:41:25;34.60;67.60
29413;DHT22;16389;50.126;8.450;2022-08-19T11:43:52;34.90;67.10
29413;DHT22;16389;50.126;8.450;2022-08-19T11:46:22;35.20;66.70
29413;DHT22;16389;50.126;8.450;2022-08-19T11:48:48;35.30;64.20
29413;DHT22;16389;50.126;8.450;2022-08-19T11:51:19;35.40;64.00
29413;DHT22;16389;50.126;8.450;2022-08-19T11:53:45;35.30;62.40
29413;DHT22;16389;50.126;8.450;2022-08-19T11:56:11;35.40;61.40
29413;DHT22;16389;50.126;8.450;2022-08-19T11:58:38;35.60;60.90
29413;DHT22;16389;50.126;8.450;2022-08-19T12:01:08;35.90;60.70
29413;DHT22;16389;50.126;8.450;2022-08-19T12:03:34;36.10;61.30
29413;DHT22;16389;50.126;8.450;2022-08-19T12:06:08;36.30;60.20
29413;DHT22;16389;50.126;8.450;2022-08-19T12:08:35;36.10;59.00
29413;DHT22;16389;50.126;8.450;2022-08-19T12:11:01;35.60;59.90
29413;DHT22;16389;50.126;8.450;2022-08-19T12:13:28;35.00;59.70
29413;DHT22;16389;50.126;8.450;2022-08-19T12:15:56;34.80;60.90
29413;DHT22;16389;50.126;8.450;2022-08-19T12:18:22;35.20;61.70
29413;DHT22;16389;50.126;8.450;2022-08-19T12:20:51;35.50;60.40
29413;DHT22;16389;50.126;8.450;2022-08-19T12:23:17;35.70;59.80
29413;DHT22;16389;50.126;8.450;2022-08-19T12:25:45;36.00;59.70
29413;DHT22;16389;50.126;8.450;2022-08-19T12:28:21;36.50;59.20
29413;DHT22;16389;50.126;8.450;2022-08-19T12:30:48;36.50;58.70
29413;DHT22;16389;50.126;8.450;2022-08-19T12:33:16;36.50;58.50
29413;DHT22;16389;50.126;8.450;2022-08-19T12:35:43;36.00;57.90
29413;DHT22;16389;50.126;8.450;2022-08-19T12:38:12;34.90;58.70
29413;DHT22;16389;50.126;8.450;2022-08-19T12:40:38;33.90;59.70
29413;DHT22;16389;50.126;8.450;2022-08-19T12:43:06;33.10;60.70
29413;DHT22;16389;50.126;8.450;2022-08-19T12:45:32;33.30;61.00
29413;DHT22;16389;50.126;8.450;2022-08-19T12:47:58;33.80;61.20
29413;DHT22;16389;50.126;8.450;2022-08-19T12:50:24;34.60;60.20
29413;DHT22;16389;50.126;8.450;2022-08-19T12:52:50;34.90;60.20
29413;DHT22;16389;50.126;8.450;2022-08-19T12:55:16;33.90;60.00
29413;DHT22;16389;50.126;8.450;2022-08-19T12:57:44;33.00;61.50
29413;DHT22;16389;50.126;8.450;2022-08-19T13:00:14;32.20;62.70
29413;DHT22;16389;50.126;8.450;2022-08-19T13:02:43;32.00;62.30
29413;DHT22;16389;50.126;8.450;2022-08-19T13:05:15;32.30;61.30
29413;DHT22;16389;50.126;8.450;2022-08-19T13:07:42;32.50;61.00
29413;DHT22;16389;50.126;8.450;2022-08-19T13:10:11;32.10;61.50
29413;DHT22;16389;50.126;8.450;2022-08-19T13:12:37;31.70;62.30
29413;DHT22;16389;50.126;8.450;2022-08-19T13:15:03;32.00;62.90
29413;DHT22;16389;50.126;8.450;2022-08-19T13:17:29;32.20;62.80
29413;DHT22;16389;50.126;8.450;2022-08-19T13:19:55;32.10;61.90
29413;DHT22;16389;50.126;8.450;2022-08-19T13:22:21;32.20;61.40
29413;DHT22;16389;50.126;8.450;2022-08-19T13:24:46;32.40;62.20
29413;DHT22;16389;50.126;8.450;2022-08-19T13:27:12;32.30;61.50
29413;DHT22;16389;50.126;8.450;2022-08-19T13:29:40;31.70;62.20
29413;DHT22;16389;50.126;8.450;2022-08-19T13:32:25;31.80;60.60
29413;DHT22;16389;50.126;8.450;2022-08-19T13:35:09;31.80;62.30
29413;DHT22;16389;50.126;8.450;2022-08-19T13:37:35;31.80;61.50
29413;DHT22;16389;50.126;8.450;2022-08-19T13:40:12;31.80;61.70
29413;DHT22;16389;50.126;8.450;2022-08-19T13:42:42;31.90;60.90
29413;DHT22;16389;50.126;8.450;2022-08-19T13:45:08;32.10;60.00
29413;DHT22;16389;50.126;8.450;2022-08-19T13:47:34;32.20;60.50
29413;DHT22;16389;50.126;8.450;2022-08-19T13:50:02;31.90;59.90
29413;DHT22;16389;50.126;8.450;2022-08-19T13:52:28;31.60;59.80
29413;DHT22;16389;50.126;8.450;2022-08-19T13:54:54;31.60;61.40
29413;DHT22;16389;50.126;8.450;2022-08-19T13:57:20;31.40;61.60
29413;DHT22;16389;50.126;8.450;2022-08-19T13:59:46;31.40;62.80
29413;DHT22;16389;50.126;8.450;2022-08-19T14:02:11;31.50;63.40
29413;DHT22;16389;50.126;8.450;2022-08-19T14:04:37;31.40;63.50
29413;DHT22;16389;50.126;8.450;2022-08-19T14:07:03;31.50;63.00
29413;DHT22;16389;50.126;8.450;2022-08-19T14:09:29;31.60;61.30
29413;DHT22;16389;50.126;8.450;2022-08-19T14:11:55;31.40;61.10
29413;DHT22;16389;50.126;8.450;2022-08-19T14:14:21;31.40;61.80
29413;DHT22;16389;50.126;8.450;2022-08-19T14:16:47;31.30;61.70
29413;DHT22;16389;50.126;8.450;2022-08-19T14:19:13;31.30;63.50
29413;DHT22;16389;50.126;8.450;2022-08-19T14:21:39;31.20;64.00
29413;DHT22;16389;50.126;8.450;2022-08-19T14:24:07;31.30;62.90
29413;DHT22;16389;50.126;8.450;2022-08-19T14:26:33;31.10;62.00
29413;DHT22;16389;50.126;8.450;2022-08-19T14:28:59;31.00;62.90
29413;DHT22;16389;50.126;8.450;2022-08-19T14:31:26;31.00;63.30
29413;DHT22;16389;50.126;8.450;2022-08-19T14:33:52;31.00;62.60
29413;DHT22;16389;50.126;8.450;2022-08-19T14:36:19;31.00;62.70
29413;DHT22;16389;50.126;8.450;2022-08-19T14:38:45;31.00;62.00
29413;DHT22;16389;50.126;8.450;2022-08-19T14:41:15;30.90;62.60
29413;DHT22;16389;50.126;8.450;2022-08-19T14:43:45;31.00;61.80
29413;DHT22;16389;50.126;8.450;2022-08-19T14:46:13;31.00;61.30
29413;DHT22;16389;50.126;8.450;2022-08-19T14:48:39;31.10;60.70
29413;DHT22;16389;50.126;8.450;2022-08-19T14:51:06;31.00;62.20
29413;DHT22;16389;50.126;8.450;2022-08-19T14:53:32;30.90;59.80
29413;DHT22;16389;50.126;8.450;2022-08-19T14:55:59;30.80;59.70
29413;DHT22;16389;50.126;8.450;2022-08-19T14:58:26;30.80;59.50
29413;DHT22;16389;50.126;8.450;2022-08-19T15:00:52;30.70;59.40
29413;DHT22;16389;50.126;8.450;2022-08-19T15:03:18;30.70;60.00
29413;DHT22;16389;50.126;8.450;2022-08-19T15:05:44;30.70;60.10
29413;DHT22;16389;50.126;8.450;2022-08-19T15:08:09;30.60;60.50
29413;DHT22;16389;50.126;8.450;2022-08-19T15:10:37;30.50;61.60
29413;DHT22;16389;50.126;8.450;2022-08-19T15:13:03;30.50;61.50
29413;DHT22;16389;50.126;8.450;2022-08-19T15:15:29;30.60;61.30
29413;DHT22;16389;50.126;8.450;2022-08-19T15:17:54;30.60;60.40
29413;DHT22;16389;50.126;8.450;2022-08-19T15:20:21;30.70;60.60
29413;DHT22;16389;50.126;8.450;2022-08-19T15:22:48;30.70;58.50
29413;DHT22;16389;50.126;8.450;2022-08-19T15:25:16;30.70;58.10
29413;DHT22;16389;50.126;8.450;2022-08-19T15:27:43;30.70;58.20
29413;DHT22;16389;50.126;8.450;2022-08-19T15:30:10;30.70;60.00
29413;DHT22;16389;50.126;8.450;2022-08-19T15:32:37;30.70;59.70
29413;DHT22;16389;50.126;8.450;2022-08-19T15:35:05;30.70;59.20
29413;DHT22;16389;50.126;8.450;2022-08-19T15:37:31;30.70;58.60
29413;DHT22;16389;50.126;8.450;2022-08-19T15:39:57;30.60;59.90
29413;DHT22;16389;50.126;8.450;2022-08-19T15:42:22;30.40;59.80
29413;DHT22;16389;50.126;8.450;2022-08-19T15:44:48;30.40;61.50
29413;DHT22;16389;50.126;8.450;2022-08-19T15:47:14;30.40;61.90
29413;DHT22;16389;50.126;8.450;2022-08-19T15:49:40;30.30;60.70